createdAt,value
2016-06-19T00:00:17.339Z,85.75
2016-06-19T00:01:17.359Z,85.42
2016-06-19T00:02:17.346Z,86
2016-06-19T00:03:17.350Z,86.29
2016-06-19T00:04:16.759Z,86.33
2016-06-19T00:05:17.357Z,86.1
2016-06-19T00:06:17.345Z,85.94
2016-06-19T00:07:17.364Z,86
2016-06-19T00:08:17.367Z,86.29
2016-06-19T00:09:17.370Z,86.1
2016-06-19T00:10:17.375Z,85.9
2016-06-19T00:11:17.362Z,85.9
2016-06-19T00:12:16.741Z,85.81
2016-06-19T00:13:17.370Z,85.71
2016-06-19T00:14:17.373Z,85.81
2016-06-19T00:15:17.377Z,85.62
2016-06-19T00:16:17.380Z,85.71
2016-06-19T00:17:17.367Z,85.85
2016-06-19T00:18:17.371Z,85.71
2016-06-19T00:19:17.374Z,85.71
2016-06-19T00:20:17.378Z,85.62
2016-06-19T00:21:17.382Z,85.62
2016-06-19T00:22:17.369Z,85.71
2016-06-19T00:23:17.388Z,85.71
2016-06-19T00:24:17.375Z,85.52
2016-06-19T00:25:17.379Z,85.33
2016-06-19T00:26:16.774Z,85.52
2016-06-19T00:27:17.386Z,86
2016-06-19T00:28:17.390Z,86.1
2016-06-19T00:29:17.392Z,86
2016-06-19T00:30:17.381Z,85.9
2016-06-19T00:31:17.400Z,85.81
2016-06-19T00:32:17.419Z,85.9
2016-06-19T00:33:17.392Z,86.1
2016-06-19T00:34:17.426Z,86.57
2016-06-19T00:35:17.399Z,86.38
2016-06-19T00:36:17.402Z,86.29
2016-06-19T00:37:17.390Z,86.29
2016-06-19T00:38:17.409Z,86.29
2016-06-19T00:39:17.396Z,85.9
2016-06-19T00:40:16.791Z,86.29
2016-06-19T00:41:17.403Z,86.29
2016-06-19T00:42:17.407Z,86
2016-06-19T00:43:17.458Z,86.19
2016-06-19T00:44:17.414Z,85.9
2016-06-19T00:45:17.418Z,86.1
2016-06-19T00:46:17.405Z,86.57
2016-06-19T00:47:17.408Z,86.57
2016-06-19T00:48:17.411Z,86.57
2016-06-19T00:49:17.415Z,86.96
2016-06-19T00:50:17.419Z,86.96
2016-06-19T00:51:17.422Z,86.96
2016-06-19T00:52:17.426Z,86.96
2016-06-19T00:53:17.429Z,86.57
2016-06-19T00:54:17.432Z,87.53
2016-06-19T00:55:17.420Z,87.34
2016-06-19T00:56:17.424Z,87.05
2016-06-19T00:57:17.428Z,87.62
2016-06-19T00:58:17.431Z,87.72
2016-06-19T00:59:17.435Z,87.62
2016-06-19T01:00:17.438Z,87.43
2016-06-19T01:01:17.442Z,87.24
2016-06-19T01:02:17.445Z,87.72
2016-06-19T01:03:17.433Z,87.72
2016-06-19T01:04:17.436Z,88.2
2016-06-19T01:05:17.439Z,87.43
2016-06-19T01:06:17.443Z,87.91
2016-06-19T01:07:17.446Z,88.1
2016-06-19T01:08:17.465Z,88.1
2016-06-19T01:09:17.453Z,88.1
2016-06-19T01:10:17.441Z,88.29
2016-06-19T01:11:17.445Z,88.2
2016-06-19T01:12:17.449Z,88.68
2016-06-19T01:13:17.452Z,88.58
2016-06-19T01:14:17.456Z,88.48
2016-06-19T01:15:17.459Z,88.48
2016-06-19T01:16:17.447Z,88.39
2016-06-19T01:17:17.466Z,88.29
2016-06-19T01:18:17.610Z,88.2
2016-06-19T01:19:17.457Z,88.87
2016-06-19T01:20:17.460Z,88.77
2016-06-19T01:21:17.464Z,89.06
2016-06-19T01:22:17.467Z,88.96
2016-06-19T01:23:17.454Z,88.87
2016-06-19T01:24:17.458Z,88.48
2016-06-19T01:25:17.462Z,88.87
2016-06-19T01:26:17.481Z,89.06
2016-06-19T01:27:17.469Z,89.15
2016-06-19T01:28:17.472Z,88.96
2016-06-19T01:29:17.475Z,89.44
2016-06-19T01:30:17.479Z,89.44
2016-06-19T01:31:17.468Z,89.25
2016-06-19T01:32:17.627Z,89.15
2016-06-19T01:33:17.474Z,89.15
2016-06-19T01:34:17.478Z,89.73
2016-06-19T01:35:17.481Z,89.44
2016-06-19T01:36:17.485Z,89.92
2016-06-19T01:37:17.488Z,89.63
2016-06-19T01:38:17.475Z,89.53
2016-06-19T01:39:16.885Z,89.53
2016-06-19T01:40:17.499Z,89.44
2016-06-19T01:41:17.486Z,89.25
2016-06-19T01:42:17.505Z,89.53
2016-06-19T01:43:17.493Z,89.53
2016-06-19T01:44:17.496Z,90.11
2016-06-19T01:45:17.500Z,89.92
2016-06-19T01:46:17.503Z,90.11
2016-06-19T01:47:17.506Z,89.15
2016-06-19T01:48:17.494Z,89.25
2016-06-19T01:49:17.514Z,89.92
2016-06-19T01:50:17.501Z,89.73
2016-06-19T01:51:17.504Z,89.92
2016-06-19T01:52:17.508Z,90.11
2016-06-19T01:53:17.497Z,89.82
2016-06-19T01:54:17.500Z,90.11
2016-06-19T01:55:16.897Z,89.92
2016-06-19T01:56:17.515Z,89.73
2016-06-19T01:57:17.537Z,89.82
2016-06-19T01:58:17.529Z,89.73
2016-06-19T01:59:16.925Z,90.01
2016-06-19T02:00:17.540Z,89.92
2016-06-19T02:01:17.545Z,90.01
2016-06-19T02:02:17.549Z,89.92
2016-06-19T02:03:17.539Z,90.2
2016-06-19T02:04:17.559Z,90.2
2016-06-19T02:05:17.547Z,90.2
2016-06-19T02:06:17.551Z,89.97
2016-06-19T02:07:17.555Z,90.11
2016-06-19T02:08:17.575Z,90.45
2016-06-19T02:09:17.563Z,90.25
2016-06-19T02:10:17.566Z,89.87
2016-06-19T02:11:17.570Z,90.54
2016-06-19T02:12:16.948Z,90.54
2016-06-19T02:13:17.561Z,90.25
2016-06-19T02:14:17.565Z,90.54
2016-06-19T02:15:17.553Z,91.11
2016-06-19T02:16:17.571Z,91.11
2016-06-19T02:17:17.559Z,90.73
2016-06-19T02:18:17.563Z,90.64
2016-06-19T02:19:17.567Z,91.02
2016-06-19T02:20:17.585Z,90.54
2016-06-19T02:21:17.573Z,90.45
2016-06-19T02:22:17.577Z,90.54
2016-06-19T02:23:17.580Z,90.54
2016-06-19T02:24:17.583Z,91.06
2016-06-19T02:25:17.571Z,91.16
2016-06-19T02:26:17.575Z,91.16
2016-06-19T02:27:17.578Z,91.3
2016-06-19T02:28:17.581Z,91.3
2016-06-19T02:29:17.585Z,91.5
2016-06-19T02:30:17.588Z,91.16
2016-06-19T02:31:17.592Z,90.97
2016-06-19T02:32:17.580Z,91.16
2016-06-19T02:33:17.584Z,91.25
2016-06-19T02:34:17.587Z,91.16
2016-06-19T02:35:17.591Z,91.35
2016-06-19T02:36:17.594Z,91.35
2016-06-19T02:37:17.597Z,91.35
2016-06-19T02:38:17.601Z,91.35
2016-06-19T02:39:17.588Z,91.35
2016-06-19T02:40:17.591Z,91.25
2016-06-19T02:41:17.595Z,91.16
2016-06-19T02:42:17.599Z,91.64
2016-06-19T02:43:17.602Z,91.35
2016-06-19T02:44:17.606Z,90.97
2016-06-19T02:45:17.609Z,90.97
2016-06-19T02:46:17.596Z,91.06
2016-06-19T02:47:17.616Z,90.97
2016-06-19T02:48:17.620Z,91.25
2016-06-19T02:49:17.606Z,91.35
2016-06-19T02:50:17.610Z,91.35
2016-06-19T02:51:17.614Z,90.97
2016-06-19T02:52:17.618Z,91.35
2016-06-19T02:53:17.605Z,91.25
2016-06-19T02:54:17.609Z,90.97
2016-06-19T02:55:17.613Z,91.06
2016-06-19T02:56:17.616Z,91.25
2016-06-19T02:57:17.619Z,90.97
2016-06-19T02:58:17.623Z,90.97
2016-06-19T02:59:17.627Z,91.16
2016-06-19T03:00:17.645Z,91.06
2016-06-19T03:01:17.617Z,91.25
2016-06-19T03:02:17.621Z,90.97
2016-06-19T03:03:17.624Z,91.16
2016-06-19T03:04:17.644Z,91.35
2016-06-19T03:05:17.631Z,91.06
2016-06-19T03:06:17.635Z,91.16
2016-06-19T03:07:17.638Z,90.88
2016-06-19T03:08:17.627Z,90.97
2016-06-19T03:09:17.630Z,90.97
2016-06-19T03:10:17.023Z,90.97
2016-06-19T03:11:17.637Z,91.06
2016-06-19T03:12:17.030Z,90.97
2016-06-19T03:13:17.644Z,90.97
2016-06-19T03:14:17.648Z,91.45
2016-06-19T03:15:17.635Z,91.25
2016-06-19T03:16:17.638Z,90.97
2016-06-19T03:17:17.642Z,91.16
2016-06-19T03:18:17.740Z,91.35
2016-06-19T03:19:17.648Z,91.16
2016-06-19T03:20:17.652Z,91.16
2016-06-19T03:21:17.656Z,90.88
2016-06-19T03:22:17.643Z,91.16
2016-06-19T03:23:17.646Z,91.16
2016-06-19T03:24:17.650Z,91.02
2016-06-19T03:25:17.654Z,91.64
2016-06-19T03:26:17.657Z,91.45
2016-06-19T03:27:17.660Z,90.92
2016-06-19T03:28:17.664Z,90.92
2016-06-19T03:29:17.652Z,91.02
2016-06-19T03:30:17.656Z,91.11
2016-06-19T03:31:17.674Z,91.3
2016-06-19T03:32:17.662Z,91.45
2016-06-19T03:33:17.666Z,91.11
2016-06-19T03:34:17.670Z,91.4
2016-06-19T03:35:17.657Z,91.3
2016-06-19T03:36:17.676Z,91.3
2016-06-19T03:37:17.680Z,91.45
2016-06-19T03:38:17.683Z,91.25
2016-06-19T03:39:17.671Z,91.5
2016-06-19T03:40:17.674Z,91.4
2016-06-19T03:41:17.678Z,91.11
2016-06-19T03:42:17.665Z,91.4
2016-06-19T03:43:17.669Z,91.4
2016-06-19T03:44:17.672Z,91.3
2016-06-19T03:45:17.675Z,91.21
2016-06-19T03:46:17.679Z,91.21
2016-06-19T03:47:17.683Z,91.4
2016-06-19T03:48:17.685Z,91.3
2016-06-19T03:49:17.690Z,91.3
2016-06-19T03:50:17.693Z,91.3
2016-06-19T03:51:17.696Z,91.3
2016-06-19T03:52:17.684Z,91.3
2016-06-19T03:53:17.689Z,91.3
2016-06-19T03:54:17.692Z,91.21
2016-06-19T03:55:17.085Z,91.02
2016-06-19T03:56:17.683Z,91.11
2016-06-19T03:57:17.077Z,91.11
2016-06-19T03:58:17.706Z,91.02
2016-06-19T03:59:17.693Z,91.3
2016-06-19T04:00:17.697Z,91.21
2016-06-19T04:01:17.700Z,91.11
2016-06-19T04:02:17.703Z,91.02
2016-06-19T04:03:17.707Z,90.92
2016-06-19T04:04:17.710Z,91.11
2016-06-19T04:05:17.699Z,91.02
2016-06-19T04:06:17.702Z,90.92
2016-06-19T04:07:17.706Z,91.25
2016-06-19T04:08:17.709Z,90.78
2016-06-19T04:09:17.713Z,90.49
2016-06-19T04:10:17.700Z,90.68
2016-06-19T04:11:17.720Z,91.06
2016-06-19T04:12:17.709Z,90.68
2016-06-19T04:13:17.715Z,90.78
2016-06-19T04:14:17.735Z,90.97
2016-06-19T04:15:17.724Z,91.06
2016-06-19T04:16:17.729Z,91.16
2016-06-19T04:17:17.733Z,90.59
2016-06-19T04:18:17.738Z,90.59
2016-06-19T04:19:17.725Z,90.49
2016-06-19T04:20:17.730Z,90.68
2016-06-19T04:21:17.734Z,90.59
2016-06-19T04:22:17.128Z,90.88
2016-06-19T04:23:17.740Z,90.78
2016-06-19T04:24:17.760Z,90.2
2016-06-19T04:25:17.748Z,90.11
2016-06-19T04:26:17.751Z,90.11
2016-06-19T04:27:17.739Z,90.06
2016-06-19T04:28:17.743Z,90.34
2016-06-19T04:29:17.746Z,90.06
2016-06-19T04:30:17.765Z,89.67
2016-06-19T04:31:17.753Z,90.06
2016-06-19T04:32:17.740Z,89.96
2016-06-19T04:33:17.744Z,89.58
2016-06-19T04:34:17.748Z,89.29
2016-06-19T04:35:17.751Z,89.67
2016-06-19T04:36:17.754Z,89.39
2016-06-19T04:37:17.774Z,89.48
2016-06-19T04:38:17.762Z,89.01
2016-06-19T04:39:17.155Z,89.2
2016-06-19T04:40:17.768Z,89.2
2016-06-19T04:41:17.772Z,88.62
2016-06-19T04:42:17.759Z,88.72
2016-06-19T04:43:17.779Z,88.91
2016-06-19T04:44:17.767Z,88.91
2016-06-19T04:45:17.769Z,88.24
2016-06-19T04:46:17.773Z,88.34
2016-06-19T04:47:17.777Z,88.34
2016-06-19T04:48:17.780Z,88.24
2016-06-19T04:49:17.783Z,88.53
2016-06-19T04:50:17.787Z,88.24
2016-06-19T04:51:17.775Z,88
2016-06-19T04:52:17.779Z,87.81
2016-06-19T04:53:17.782Z,87.9
2016-06-19T04:54:17.785Z,88.09
2016-06-19T04:55:17.789Z,87.52
2016-06-19T04:56:17.777Z,87.81
2016-06-19T04:57:17.796Z,87.71
2016-06-19T04:58:17.783Z,87.9
2016-06-19T04:59:17.787Z,87.14
2016-06-19T05:00:17.790Z,87.62
2016-06-19T05:01:17.185Z,86.85
2016-06-19T05:02:17.798Z,86.76
2016-06-19T05:03:17.801Z,86.47
2016-06-19T05:04:17.804Z,86.66
2016-06-19T05:05:17.793Z,86.66
2016-06-19T05:06:17.796Z,86.18
2016-06-19T05:07:17.800Z,86.37
2016-06-19T05:08:17.834Z,86.66
2016-06-19T05:09:17.806Z,86.66
2016-06-19T05:10:17.810Z,85.99
2016-06-19T05:11:17.814Z,85.8
2016-06-19T05:12:17.817Z,86.28
2016-06-19T05:13:17.804Z,85.8
2016-06-19T05:14:17.808Z,85.99
2016-06-19T05:15:17.811Z,85.8
2016-06-19T05:16:17.815Z,85.65
2016-06-19T05:17:17.818Z,85.71
2016-06-19T05:18:17.369Z,85.61
2016-06-19T05:19:17.809Z,85.8
2016-06-19T05:20:17.828Z,85.17
2016-06-19T05:21:17.832Z,85.17
2016-06-19T05:22:17.836Z,84.69
2016-06-19T05:23:17.823Z,84.98
2016-06-19T05:24:17.827Z,84.59
2016-06-19T05:25:17.221Z,84.69
2016-06-19T05:26:17.818Z,84.59
2016-06-19T05:27:17.837Z,84.12
2016-06-19T05:28:17.840Z,83.64
2016-06-19T05:29:17.829Z,83.93
2016-06-19T05:30:17.832Z,83.45
2016-06-19T05:31:17.835Z,83.73
2016-06-19T05:32:17.840Z,83.68
2016-06-19T05:33:17.842Z,83.2
2016-06-19T05:34:17.846Z,83.3
2016-06-19T05:35:17.850Z,83.01
2016-06-19T05:36:17.837Z,82.92
2016-06-19T05:37:17.857Z,82.63
2016-06-19T05:38:17.843Z,82.63
2016-06-19T05:39:17.863Z,82.43
2016-06-19T05:40:17.851Z,82.73
2016-06-19T05:41:17.855Z,82.34
2016-06-19T05:42:17.857Z,82.34
2016-06-19T05:43:17.862Z,81.86
2016-06-19T05:44:17.864Z,81.77
2016-06-19T05:45:17.868Z,81.57
2016-06-19T05:46:17.871Z,81.57
2016-06-19T05:47:17.859Z,81.77
2016-06-19T05:48:17.879Z,81.57
2016-06-19T05:49:17.865Z,81
2016-06-19T05:50:17.869Z,81.2
2016-06-19T05:51:17.873Z,81.1
2016-06-19T05:52:17.877Z,81
2016-06-19T05:53:17.864Z,81.1
2016-06-19T05:54:17.869Z,81
2016-06-19T05:55:17.871Z,80.52
2016-06-19T05:56:17.875Z,80.81
2016-06-19T05:57:17.879Z,80.81
2016-06-19T05:58:17.272Z,80.9
2016-06-19T05:59:17.901Z,80.52
2016-06-19T06:00:17.872Z,81
2016-06-19T06:01:17.892Z,80.81
2016-06-19T06:02:17.880Z,81
2016-06-19T06:03:17.274Z,80.43
2016-06-19T06:04:17.902Z,80.04
2016-06-19T06:05:17.296Z,80.04
2016-06-19T06:06:17.893Z,80.08
2016-06-19T06:07:17.288Z,80.37
2016-06-19T06:08:17.901Z,80.47
2016-06-19T06:09:17.295Z,80.18
2016-06-19T06:10:17.907Z,79.89
2016-06-19T06:11:17.927Z,79.22
2016-06-19T06:12:17.915Z,79.32
2016-06-19T06:13:17.934Z,78.88
2016-06-19T06:14:17.907Z,79.07
2016-06-19T06:15:17.910Z,78.59
2016-06-19T06:16:17.913Z,78.3
2016-06-19T06:17:17.917Z,77.73
2016-06-19T06:18:17.920Z,77.92
2016-06-19T06:19:17.923Z,77.82
2016-06-19T06:20:17.927Z,77.53
2016-06-19T06:21:17.914Z,77.53
2016-06-19T06:22:17.918Z,77.34
2016-06-19T06:23:17.921Z,77.25
2016-06-19T06:24:17.925Z,77.5
2016-06-19T06:25:17.929Z,77.21
2016-06-19T06:26:17.931Z,77.59
2016-06-19T06:27:17.935Z,77.21
2016-06-19T06:28:17.945Z,77.02
2016-06-19T06:29:17.938Z,77.31
2016-06-19T06:30:17.948Z,77.02
2016-06-19T06:31:17.957Z,77.11
2016-06-19T06:32:17.981Z,77.4
2016-06-19T06:33:17.378Z,76.77
2016-06-19T06:34:17.977Z,76.39
2016-06-19T06:35:17.983Z,76
2016-06-19T06:36:17.989Z,75.71
2016-06-19T06:37:17.994Z,75.71
2016-06-19T06:38:17.998Z,75.27
2016-06-19T06:39:18.003Z,74.79
2016-06-19T06:40:17.992Z,74.31
2016-06-19T06:41:17.996Z,73.68
2016-06-19T06:42:18.001Z,73.58
2016-06-19T06:43:18.003Z,73.68
2016-06-19T06:44:18.007Z,73
2016-06-19T06:45:18.010Z,72.43
2016-06-19T06:46:18.015Z,72.63
2016-06-19T06:47:18.018Z,71.95
2016-06-19T06:48:18.021Z,71.7
2016-06-19T06:49:18.040Z,70.93
2016-06-19T06:50:18.028Z,70.39
2016-06-19T06:51:18.031Z,70.29
2016-06-19T06:52:18.019Z,68.85
2016-06-19T06:53:18.038Z,68.7
2016-06-19T06:54:18.026Z,68.21
2016-06-19T06:55:18.029Z,67.58
2016-06-19T06:56:18.033Z,66.74
2016-06-19T06:57:18.036Z,64.95
2016-06-19T06:58:18.040Z,62.12
2016-06-19T06:59:17.434Z,59.2
2016-06-19T07:00:18.031Z,57.42
2016-06-19T07:01:18.050Z,55.71
2016-06-19T07:02:17.444Z,54.29
2016-06-19T07:03:18.057Z,52
2016-06-19T07:04:18.060Z,51.35
2016-06-19T07:05:18.064Z,50.86
2016-06-19T07:06:18.067Z,50.57
2016-06-19T07:07:18.055Z,50.74
2016-06-19T07:08:18.075Z,51.13
2016-06-19T07:09:18.093Z,51.1
2016-06-19T07:10:18.065Z,50.62
2016-06-19T07:11:18.084Z,50.79
2016-06-19T07:12:18.088Z,51.07
2016-06-19T07:13:18.092Z,51.53
2016-06-19T07:14:18.079Z,51.44
2016-06-19T07:15:18.098Z,51.73
2016-06-19T07:16:18.085Z,51.89
2016-06-19T07:17:18.089Z,52.86
2016-06-19T07:18:18.203Z,53.41
2016-06-19T07:19:18.096Z,53.41
2016-06-19T07:20:18.100Z,53.7
2016-06-19T07:21:18.104Z,53.87
2016-06-19T07:22:18.122Z,53.39
2016-06-19T07:23:18.110Z,53.7
2016-06-19T07:24:18.113Z,53.67
2016-06-19T07:25:18.117Z,53.87
2016-06-19T07:26:18.120Z,52.93
2016-06-19T07:27:18.124Z,52.06
2016-06-19T07:28:18.144Z,51.97
2016-06-19T07:29:18.130Z,51.51
2016-06-19T07:30:18.134Z,50.74
2016-06-19T07:31:17.529Z,50.84
2016-06-19T07:32:17.548Z,49.7
2016-06-19T07:33:18.145Z,49.32
2016-06-19T07:34:18.148Z,49.32
2016-06-19T07:35:18.168Z,49.6
2016-06-19T07:36:18.155Z,49.22
2016-06-19T07:37:18.158Z,49.22
2016-06-19T07:38:18.162Z,49.22
2016-06-19T07:39:18.165Z,48.93
2016-06-19T07:40:18.169Z,49.12
2016-06-19T07:41:18.172Z,49
2016-06-19T07:42:18.192Z,49.1
2016-06-19T07:43:18.211Z,48.81
2016-06-19T07:44:18.182Z,48.33
2016-06-19T07:45:18.186Z,48.61
2016-06-19T07:46:18.190Z,48.54
2016-06-19T07:47:18.209Z,48.44
2016-06-19T07:48:18.197Z,48.52
2016-06-19T07:49:18.200Z,47.87
2016-06-19T07:50:18.203Z,47.94
2016-06-19T07:51:18.206Z,48.13
2016-06-19T07:52:18.210Z,47.45
2016-06-19T07:53:18.214Z,47.17
2016-06-19T07:54:18.217Z,47.27
2016-06-19T07:55:18.221Z,46.78
2016-06-19T07:56:18.224Z,46.59
2016-06-19T07:57:18.228Z,46.01
2016-06-19T07:58:18.231Z,45.62
2016-06-19T07:59:18.235Z,45.72
2016-06-19T08:00:18.238Z,46.08
2016-06-19T08:01:18.241Z,46.66
2016-06-19T08:02:18.245Z,47.22
2016-06-19T08:03:18.248Z,47.8
2016-06-19T08:04:18.252Z,47.51
2016-06-19T08:05:17.646Z,47.51
2016-06-19T08:06:17.650Z,47.6
2016-06-19T08:07:18.263Z,47.7
2016-06-19T08:08:18.265Z,46.86
2016-06-19T08:09:18.270Z,46.37
2016-06-19T08:10:18.272Z,46.06
2016-06-19T08:11:18.276Z,46.64
2016-06-19T08:12:18.279Z,46.83
2016-06-19T08:13:18.283Z,47.03
2016-06-19T08:14:17.694Z,47.51
2016-06-19T08:15:17.681Z,46.73
2016-06-19T08:16:18.310Z,46.66
2016-06-19T08:17:18.296Z,46.56
2016-06-19T08:18:18.300Z,47.05
2016-06-19T08:19:18.304Z,48.3
2016-06-19T08:20:18.307Z,50.71
2016-06-19T08:21:18.327Z,52.81
2016-06-19T08:22:18.314Z,54.58
2016-06-19T08:23:18.318Z,56
2016-06-19T08:24:18.321Z,57.22
2016-06-19T08:25:18.324Z,58.45
2016-06-19T08:26:18.328Z,59.28
2016-06-19T08:27:18.347Z,60.4
2016-06-19T08:28:18.367Z,60.88
2016-06-19T08:29:18.338Z,61.91
2016-06-19T08:30:18.358Z,62.1
2016-06-19T08:31:17.736Z,62.48
2016-06-19T08:32:18.349Z,62.96
2016-06-19T08:33:18.352Z,63.45
2016-06-19T08:34:18.372Z,63.25
2016-06-19T08:35:18.359Z,63.25
2016-06-19T08:36:18.378Z,63.45
2016-06-19T08:37:18.366Z,63.35
2016-06-19T08:38:18.369Z,63.73
2016-06-19T08:39:18.373Z,63.45
2016-06-19T08:40:18.377Z,63.64
2016-06-19T08:41:18.380Z,63.54
2016-06-19T08:42:18.383Z,63.73
2016-06-19T08:43:18.386Z,64.02
2016-06-19T08:44:18.392Z,64.5
2016-06-19T08:45:18.415Z,64.59
2016-06-19T08:46:18.405Z,65.23
2016-06-19T08:47:18.411Z,65.62
2016-06-19T08:48:18.417Z,66.19
2016-06-19T08:49:18.422Z,66.58
2016-06-19T08:50:18.426Z,66.49
2016-06-19T08:51:18.431Z,67.06
2016-06-19T08:52:18.435Z,67.35
2016-06-19T08:53:18.440Z,67.16
2016-06-19T08:54:18.444Z,67.25
2016-06-19T08:55:18.464Z,66.86
2016-06-19T08:56:18.452Z,66.58
2016-06-19T08:57:18.440Z,66.42
2016-06-19T08:58:18.460Z,66.52
2016-06-19T08:59:18.463Z,66.42
2016-06-19T09:00:18.467Z,66.13
2016-06-19T09:01:18.470Z,65.59
2016-06-19T09:02:18.662Z,65.78
2016-06-19T09:03:18.477Z,65.3
2016-06-19T09:04:18.480Z,65.2
2016-06-19T09:05:18.484Z,65.3
2016-06-19T09:06:18.472Z,65.2
2016-06-19T09:07:17.882Z,65.3
2016-06-19T09:08:18.494Z,65.3
2016-06-19T09:09:18.498Z,65.49
2016-06-19T09:10:18.501Z,65.59
2016-06-19T09:11:18.489Z,65.3
2016-06-19T09:12:18.508Z,65.56
2016-06-19T09:13:18.511Z,65.46
2016-06-19T09:14:18.515Z,65.65
2016-06-19T09:15:18.503Z,65.27
2016-06-19T09:16:18.507Z,65.46
2016-06-19T09:17:18.511Z,65.11
2016-06-19T09:18:18.623Z,65.3
2016-06-19T09:19:18.518Z,64.92
2016-06-19T09:20:18.521Z,64.72
2016-06-19T09:21:18.525Z,64.43
2016-06-19T09:22:18.527Z,63.51
2016-06-19T09:23:18.531Z,63.54
2016-06-19T09:24:18.549Z,62.96
2016-06-19T09:25:18.538Z,62.87
2016-06-19T09:26:18.542Z,62.68
2016-06-19T09:27:18.545Z,62.9
2016-06-19T09:28:18.549Z,62.77
2016-06-19T09:29:18.551Z,62.41
2016-06-19T09:30:18.555Z,62.19
2016-06-19T09:31:17.949Z,62.32
2016-06-19T09:32:18.563Z,62.48
2016-06-19T09:33:18.566Z,62.32
2016-06-19T09:34:18.570Z,62.32
2016-06-19T09:35:18.572Z,62.38
2016-06-19T09:36:18.576Z,62.68
2016-06-19T09:37:18.579Z,62.68
2016-06-19T09:38:18.583Z,63.06
2016-06-19T09:39:18.587Z,62.87
2016-06-19T09:40:18.589Z,63.89
2016-06-19T09:41:18.593Z,63.79
2016-06-19T09:42:18.597Z,64.37
2016-06-19T09:43:18.600Z,64.47
2016-06-19T09:44:18.604Z,64.56
2016-06-19T09:45:18.607Z,64.28
2016-06-19T09:46:18.595Z,63.41
2016-06-19T09:47:18.614Z,63.25
2016-06-19T09:48:18.617Z,63.15
2016-06-19T09:49:18.621Z,62.96
2016-06-19T09:50:18.608Z,63.25
2016-06-19T09:51:18.628Z,62.87
2016-06-19T09:52:18.632Z,61.91
2016-06-19T09:53:18.619Z,62.19
2016-06-19T09:54:18.622Z,61.74
2016-06-19T09:55:18.642Z,60.88
2016-06-19T09:56:18.629Z,60.49
2016-06-19T09:57:18.649Z,59.94
2016-06-19T09:58:18.652Z,59.37
2016-06-19T09:59:18.640Z,59.01
2016-06-19T10:00:18.049Z,58.75
2016-06-19T10:01:18.662Z,57.82
2016-06-19T10:02:18.666Z,57.34
2016-06-19T10:03:18.670Z,56.4
2016-06-19T10:04:18.673Z,55.44
2016-06-19T10:05:18.676Z,54.88
2016-06-19T10:06:18.664Z,54.21
2016-06-19T10:07:18.683Z,53.25
2016-06-19T10:08:18.687Z,53.44
2016-06-19T10:09:18.705Z,52.5
2016-06-19T10:10:18.694Z,52.98
2016-06-19T10:11:18.087Z,52.53
2016-06-19T10:12:18.700Z,52.04
2016-06-19T10:13:18.688Z,50.89
2016-06-19T10:14:18.097Z,50.4
2016-06-19T10:15:18.711Z,50.13
2016-06-19T10:16:18.714Z,49.24
2016-06-19T10:17:18.702Z,49.07
2016-06-19T10:18:18.721Z,49.24
2016-06-19T10:19:18.725Z,49.02
2016-06-19T10:20:18.712Z,49.68
2016-06-19T10:21:18.732Z,51.1
2016-06-19T10:22:18.735Z,51.53
2016-06-19T10:23:18.739Z,52.85
2016-06-19T10:24:18.742Z,54.82
2016-06-19T10:25:18.745Z,56.65
2016-06-19T10:26:18.749Z,58.35
2016-06-19T10:27:18.752Z,61.36
2016-06-19T10:28:18.771Z,67.09
2016-06-19T10:29:18.759Z,72.63
2016-06-19T10:30:18.763Z,75.43
2016-06-19T10:31:18.767Z,76.54
2016-06-19T10:32:18.770Z,78.61
2016-06-19T10:33:18.774Z,80.38
2016-06-19T10:34:18.777Z,81.05
2016-06-19T10:35:18.795Z,82.01
2016-06-19T10:36:18.784Z,83.22
2016-06-19T10:37:18.787Z,83.89
2016-06-19T10:38:18.180Z,84.94
2016-06-19T10:39:18.794Z,85.61
2016-06-19T10:40:18.187Z,86.14
2016-06-19T10:41:18.801Z,86.04
2016-06-19T10:42:18.805Z,86.61
2016-06-19T10:43:18.808Z,87
2016-06-19T10:44:18.812Z,87
2016-06-19T10:45:18.204Z,87.48
2016-06-19T10:46:18.818Z,87.86
2016-06-19T10:47:18.821Z,88.05
2016-06-19T10:48:18.825Z,88.24
2016-06-19T10:49:18.829Z,88.91
2016-06-19T10:50:18.832Z,88.91
2016-06-19T10:51:18.836Z,88.81
2016-06-19T10:52:18.838Z,89.39
2016-06-19T10:53:18.843Z,89.58
2016-06-19T10:54:18.830Z,89.48
2016-06-19T10:55:18.849Z,90.06
2016-06-19T10:56:18.867Z,89.77
2016-06-19T10:57:18.840Z,90.25
2016-06-19T10:58:18.860Z,90.16
2016-06-19T10:59:18.863Z,90.06
2016-06-19T11:00:18.867Z,90.34
2016-06-19T11:01:18.872Z,89.96
2016-06-19T11:02:18.877Z,90.53
2016-06-19T11:03:18.272Z,90.82
2016-06-19T11:04:18.887Z,90.73
2016-06-19T11:05:18.891Z,91.02
2016-06-19T11:06:18.879Z,91.11
2016-06-19T11:07:18.899Z,91.11
2016-06-19T11:08:18.903Z,91.3
2016-06-19T11:09:18.907Z,91.2
2016-06-19T11:10:18.301Z,91.97
2016-06-19T11:11:18.915Z,91.68
2016-06-19T11:12:18.919Z,91.92
2016-06-19T11:13:18.922Z,92.21
2016-06-19T11:14:18.927Z,92.21
2016-06-19T11:15:18.914Z,92.11
2016-06-19T11:16:18.933Z,92.11
2016-06-19T11:17:18.921Z,92.02
2016-06-19T11:18:18.940Z,92.02
2016-06-19T11:19:18.928Z,91.53
2016-06-19T11:20:18.931Z,91.68
2016-06-19T11:21:18.935Z,91.58
2016-06-19T11:22:18.969Z,91.58
2016-06-19T11:23:18.333Z,91.58
2016-06-19T11:24:18.945Z,91.58
2016-06-19T11:25:18.948Z,91.72
2016-06-19T11:26:18.952Z,91.25
2016-06-19T11:27:18.972Z,91.34
2016-06-19T11:28:18.959Z,91.15
2016-06-19T11:29:18.962Z,90.96
2016-06-19T11:30:18.357Z,90.81
2016-06-19T11:31:18.969Z,91.29
2016-06-19T11:32:18.973Z,90.81
2016-06-19T11:33:18.976Z,91
2016-06-19T11:34:18.979Z,91.1
2016-06-19T11:35:18.983Z,91.19
2016-06-19T11:36:18.377Z,91.29
2016-06-19T11:37:18.990Z,90.95
2016-06-19T11:38:19.009Z,90.76
2016-06-19T11:39:18.997Z,90
2016-06-19T11:40:19.000Z,89.61
2016-06-19T11:41:19.003Z,88.84
2016-06-19T11:42:18.993Z,89.09
2016-06-19T11:43:19.011Z,88.99
2016-06-19T11:44:18.999Z,89.18
2016-06-19T11:45:19.018Z,89.09
2016-06-19T11:46:19.006Z,88.66
2016-06-19T11:47:18.447Z,89.23
2016-06-19T11:48:19.013Z,89.43
2016-06-19T11:49:19.016Z,89.62
2016-06-19T11:50:19.035Z,89.33
2016-06-19T11:51:19.023Z,89.62
2016-06-19T11:52:19.026Z,89.52
2016-06-19T11:53:19.031Z,88.76
2016-06-19T11:54:19.049Z,88.47
2016-06-19T11:55:19.038Z,88.37
2016-06-19T11:56:19.041Z,88.95
2016-06-19T11:57:19.045Z,89.04
2016-06-19T11:58:19.047Z,88.9
2016-06-19T11:59:19.051Z,89.43
2016-06-19T12:00:19.055Z,89.9
2016-06-19T12:01:19.042Z,89.81
2016-06-19T12:02:19.045Z,89.47
2016-06-19T12:03:18.440Z,89.28
2016-06-19T12:04:19.053Z,89.18
2016-06-19T12:05:19.072Z,89.86
2016-06-19T12:06:19.059Z,89.57
2016-06-19T12:07:19.079Z,89.66
2016-06-19T12:08:19.083Z,89.71
2016-06-19T12:09:19.085Z,89.61
2016-06-19T12:10:19.073Z,89.71
2016-06-19T12:11:19.076Z,89.42
2016-06-19T12:12:19.081Z,89.65
2016-06-19T12:13:19.084Z,89.18
2016-06-19T12:14:19.087Z,89.27
2016-06-19T12:15:19.090Z,89.32
2016-06-19T12:16:19.094Z,88.65
2016-06-19T12:17:19.097Z,88.21
2016-06-19T12:18:19.101Z,87.39
2016-06-19T12:19:18.495Z,87.1
2016-06-19T12:20:19.108Z,87.39
2016-06-19T12:21:19.112Z,86.62
2016-06-19T12:22:19.114Z,87.05
2016-06-19T12:23:19.118Z,85.99
2016-06-19T12:24:19.122Z,85.61
2016-06-19T12:25:19.109Z,85.03
2016-06-19T12:26:19.145Z,84.84
2016-06-19T12:27:19.132Z,84.36
2016-06-19T12:28:19.135Z,83.78
2016-06-19T12:29:19.139Z,83.2
2016-06-19T12:30:19.143Z,83.01
2016-06-19T12:31:18.536Z,82.97
2016-06-19T12:32:19.149Z,83.26
2016-06-19T12:33:19.153Z,83.26
2016-06-19T12:34:19.156Z,82.68
2016-06-19T12:35:19.143Z,82.3
2016-06-19T12:36:19.163Z,82.54
2016-06-19T12:37:19.166Z,81.97
2016-06-19T12:38:19.155Z,82.26
2016-06-19T12:39:19.157Z,81.97
2016-06-19T12:40:19.161Z,82.12
2016-06-19T12:41:19.165Z,82.12
2016-06-19T12:42:19.168Z,81.64
2016-06-19T12:43:19.172Z,81.84
2016-06-19T12:44:19.175Z,81.7
2016-06-19T12:45:19.179Z,81.22
2016-06-19T12:46:18.572Z,79.68
2016-06-19T12:47:19.185Z,80.12
2016-06-19T12:48:19.189Z,80.56
2016-06-19T12:49:19.192Z,80.47
2016-06-19T12:50:19.195Z,80.22
2016-06-19T12:51:19.199Z,79.22
2016-06-19T12:52:19.202Z,80.08
2016-06-19T12:53:19.222Z,80.18
2016-06-19T12:54:19.210Z,80.76
2016-06-19T12:55:19.213Z,80.66
2016-06-19T12:56:19.217Z,79.7
2016-06-19T12:57:19.220Z,79.7